Time;durP1;ratioP1;P1;durP2;ratioP2;P2;SDS_P1;SDS_P2;PMS_P1;PMS_P2;Temp;Humidity;BMP_temperature;BMP_pressure;BME280_temperature;BME280_humidity;BME280_pressure;Samples;Min_cycle;Max_cycle;Signal;HPM_P1;HPM_P2
2022/03/13 00:00:23;;;;;;;7.57;5.43;;;5.50;24.70;;;;;;5075756;28;20232;-53
2022/03/13 00:02:52;;;;;;;6.63;5.00;;;5.50;24.60;;;;;;5098114;28;20630;-54
2022/03/13 00:05:18;;;;;;;6.10;4.40;;;5.50;24.80;;;;;;5095958;28;20165;-54
2022/03/13 00:07:44;;;;;;;5.40;4.17;;;5.50;24.90;;;;;;5095504;28;20838;-53
2022/03/13 00:10:10;;;;;;;5.17;4.20;;;5.50;24.60;;;;;;5089777;28;20194;-52
2022/03/13 00:12:37;;;;;;;5.47;4.17;;;5.50;24.50;;;;;;5075493;28;20182;-57
2022/03/13 00:15:10;;;;;;;5.70;4.23;;;5.50;24.40;;;;;;5075457;28;20622;-53
2022/03/13 00:17:36;;;;;;;5.73;4.13;;;5.50;24.60;;;;;;5075254;28;20262;-51
2022/03/13 00:20:05;;;;;;;6.57;4.80;;;5.50;24.80;;;;;;5075182;28;20619;-53
2022/03/13 00:22:33;;;;;;;5.60;4.37;;;5.50;25.20;;;;;;5075465;28;20194;-55
2022/03/13 00:25:00;;;;;;;5.27;4.30;;;5.50;25.80;;;;;;5075292;28;20167;-53
2022/03/13 00:27:31;;;;;;;5.10;4.37;;;5.50;25.80;;;;;;5074757;28;20171;-55
2022/03/13 00:29:59;;;;;;;7.10;4.57;;;5.40;25.30;;;;;;5075078;28;20228;-54
2022/03/13 00:32:25;;;;;;;5.77;3.80;;;5.30;25.10;;;;;;5075040;28;20178;-51
2022/03/13 00:34:51;;;;;;;5.10;4.27;;;5.20;25.30;;;;;;5075087;28;20171;-57
2022/03/13 00:37:17;;;;;;;5.67;4.97;;;5.20;25.50;;;;;;5074689;28;20720;-55
2022/03/13 00:39:44;;;;;;;6.90;5.57;;;5.10;25.40;;;;;;5075019;28;20230;-53
2022/03/13 00:42:13;;;;;;;7.93;6.00;;;5.10;25.30;;;;;;5074939;28;20597;-53
2022/03/13 00:44:39;;;;;;;6.43;5.20;;;5.10;25.10;;;;;;5074849;28;20235;-56
2022/03/13 00:47:05;;;;;;;6.47;5.10;;;5.10;25.10;;;;;;5074678;28;20175;-54
2022/03/13 00:49:32;;;;;;;6.83;4.77;;;5.10;25.00;;;;;;5074469;28;20746;-53
2022/03/13 00:51:59;;;;;;;6.67;5.30;;;5.10;25.20;;;;;;5074773;28;20260;-57
2022/03/13 00:54:24;;;;;;;6.97;5.20;;;5.20;25.40;;;;;;5074508;28;20189;-54
2022/03/13 00:56:50;;;;;;;6.03;5.33;;;5.10;25.40;;;;;;5074230;28;20639;-52
2022/03/13 00:59:16;;;;;;;5.40;4.20;;;5.10;25.80;;;;;;5073767;28;20209;-51
2022/03/13 01:01:42;;;;;;;6.03;4.20;;;5.10;25.90;;;;;;5073940;28;20655;-54
2022/03/13 01:04:07;;;;;;;4.80;4.20;;;5.10;25.90;;;;;;5074013;28;20582;-54
2022/03/13 01:06:33;;;;;;;5.23;4.63;;;5.00;26.00;;;;;;5073245;28;20162;-56
2022/03/13 01:08:59;;;;;;;4.77;4.00;;;5.00;26.60;;;;;;5074214;28;20163;-52
2022/03/13 01:11:24;;;;;;;5.03;4.17;;;4.90;27.20;;;;;;5074065;28;20181;-57
2022/03/13 01:13:50;;;;;;;6.03;4.47;;;4.90;27.70;;;;;;5074272;28;20182;-57
2022/03/13 01:16:20;;;;;;;6.60;4.20;;;4.80;28.90;;;;;;5073924;28;20174;-53
2022/03/13 01:18:55;;;;;;;5.00;4.03;;;4.70;28.50;;;;;;5073986;28;20182;-56
2022/03/13 01:21:21;;;;;;;5.33;4.23;;;4.70;28.60;;;;;;5074236;28;20491;-57
2022/03/13 01:24:10;;;;;;;6.20;4.43;;;4.50;29.00;;;;;;5073966;28;20475;-53
2022/03/13 01:26:37;;;;;;;6.97;4.40;;;4.50;29.60;;;;;;5073842;28;20397;-56
2022/03/13 01:29:08;;;;;;;5.00;4.07;;;4.30;28.90;;;;;;5074131;28;20186;-52
2022/03/13 01:31:36;;;;;;;6.77;4.30;;;4.30;29.70;;;;;;5073978;28;20979;-54
2022/03/13 01:34:04;;;;;;;5.43;4.13;;;4.20;29.10;;;;;;5073828;28;20507;-51
2022/03/13 01:36:29;;;;;;;5.17;4.03;;;4.10;28.70;;;;;;5073054;28;20471;-54
2022/03/13 01:39:00;;;;;;;5.03;4.10;;;4.00;29.00;;;;;;5073424;28;20409;-52
2022/03/13 01:41:28;;;;;;;4.83;4.13;;;4.10;29.30;;;;;;5073821;28;20198;-54
2022/03/13 01:43:58;;;;;;;5.67;4.13;;;4.00;29.80;;;;;;5073535;28;20460;-57
2022/03/13 01:46:24;;;;;;;6.40;4.30;;;3.90;29.90;;;;;;5073323;28;20401;-54
2022/03/13 01:49:02;;;;;;;4.73;3.97;;;3.90;29.90;;;;;;5073357;28;20412;-56
2022/03/13 01:51:28;;;;;;;5.20;4.17;;;3.80;29.70;;;;;;5073561;28;20686;-55
2022/03/13 01:53:59;;;;;;;5.23;4.33;;;3.80;30.00;;;;;;5073564;28;20436;-57
2022/03/13 01:56:25;;;;;;;6.13;4.60;;;3.80;29.70;;;;;;5073270;28;20257;-54
2022/03/13 01:58:55;;;;;;;5.00;4.03;;;3.70;29.40;;;;;;5073234;28;20473;-56
2022/03/13 02:01:22;;;;;;;11.17;7.63;;;3.70;30.00;;;;;;5073415;28;20405;-57
2022/03/13 02:03:48;;;;;;;11.57;8.93;;;3.70;29.80;;;;;;5073234;28;20453;-57
2022/03/13 02:06:15;;;;;;;18.13;13.30;;;3.60;29.70;;;;;;5072936;28;20396;-57
2022/03/13 02:08:41;;;;;;;12.60;8.80;;;3.60;29.90;;;;;;5073093;28;20409;-57
2022/03/13 02:11:08;;;;;;;9.00;7.10;;;3.50;30.00;;;;;;5073180;28;20420;-54
2022/03/13 02:13:34;;;;;;;8.60;4.93;;;3.50;30.30;;;;;;5073009;28;20171;-53
2022/03/13 02:16:00;;;;;;;6.30;4.90;;;3.50;30.10;;;;;;5072758;28;20784;-56
2022/03/13 02:18:26;;;;;;;7.67;5.50;;;3.40;30.50;;;;;;5072255;28;20413;-57
2022/03/13 02:20:52;;;;;;;7.43;5.47;;;3.40;30.60;;;;;;5072735;28;20453;-57
2022/03/13 02:23:22;;;;;;;8.27;6.07;;;3.50;30.90;;;;;;5072918;28;20205;-52
2022/03/13 02:25:53;;;;;;;9.00;6.33;;;3.50;30.90;;;;;;5072713;28;20401;-54
2022/03/13 02:28:21;;;;;;;9.37;6.90;;;3.40;30.50;;;;;;5072614;28;20412;-56
2022/03/13 02:30:47;;;;;;;7.90;6.27;;;3.30;30.40;;;;;;5072613;28;20480;-56
2022/03/13 02:33:17;;;;;;;7.10;4.97;;;3.20;30.30;;;;;;5072755;28;20412;-56
2022/03/13 02:35:47;;;;;;;7.87;6.20;;;3.20;30.40;;;;;;5072554;28;20440;-57
2022/03/13 02:38:13;;;;;;;11.53;8.10;;;3.20;30.70;;;;;;5072593;28;20847;-57
2022/03/13 02:40:38;;;;;;;11.37;8.70;;;3.20;31.20;;;;;;5072527;28;20527;-56
2022/03/13 02:43:04;;;;;;;8.30;6.73;;;3.30;31.50;;;;;;5072432;28;20243;-57
2022/03/13 02:45:33;;;;;;;12.50;7.50;;;3.20;30.90;;;;;;5072221;28;20174;-56
2022/03/13 02:48:00;;;;;;;9.67;5.93;;;3.20;30.90;;;;;;5072507;28;20190;-57
2022/03/13 02:50:26;;;;;;;9.87;6.00;;;3.20;31.20;;;;;;5072460;28;20436;-52
2022/03/13 02:52:51;;;;;;;7.63;5.87;;;3.10;31.00;;;;;;5072267;28;20413;-51
2022/03/13 02:55:17;;;;;;;10.30;7.73;;;3.10;31.20;;;;;;5087946;28;20261;-51
2022/03/13 02:57:43;;;;;;;9.83;8.00;;;3.10;31.70;;;;;;5071927;28;20177;-49
2022/03/13 03:00:09;;;;;;;8.40;6.00;;;3.10;32.00;;;;;;5072141;28;20194;-53
2022/03/13 03:02:36;;;;;;;7.17;5.30;;;3.10;31.70;;;;;;5072063;28;20448;-51
2022/03/13 03:05:06;;;;;;;5.83;5.10;;;3.00;33.20;;;;;;5072102;28;20821;-51
2022/03/13 03:07:33;;;;;;;6.90;5.03;;;2.90;32.90;;;;;;5071775;28;20897;-49
2022/03/13 03:09:58;;;;;;;6.13;4.67;;;2.90;33.20;;;;;;5071832;28;20428;-56
2022/03/13 03:12:24;;;;;;;6.33;4.90;;;2.90;32.60;;;;;;5072001;28;20396;-51
2022/03/13 03:14:50;;;;;;;6.27;4.80;;;2.90;32.40;;;;;;5071948;28;20197;-51
2022/03/13 03:17:16;;;;;;;9.00;5.63;;;2.90;32.40;;;;;;5071593;28;20178;-52
2022/03/13 03:19:42;;;;;;;7.47;5.77;;;2.90;33.40;;;;;;5071605;28;20683;-53
2022/03/13 03:22:07;;;;;;;7.80;5.93;;;2.90;33.00;;;;;;5071785;28;20415;-53
2022/03/13 03:24:33;;;;;;;6.57;5.27;;;2.80;33.40;;;;;;5071886;28;20179;-50
2022/03/13 03:26:59;;;;;;;8.60;4.90;;;2.70;33.50;;;;;;5071326;28;20250;-53
2022/03/13 03:29:26;;;;;;;6.73;5.10;;;2.60;33.80;;;;;;5071224;28;20555;-52
2022/03/13 03:31:52;;;;;;;7.17;5.40;;;2.50;34.10;;;;;;5071625;28;20583;-49
2022/03/13 03:34:26;;;;;;;8.77;6.30;;;2.50;34.70;;;;;;5071922;28;20504;-52
2022/03/13 03:36:54;;;;;;;8.00;5.17;;;2.50;34.50;;;;;;5071413;28;20427;-53
2022/03/13 03:39:21;;;;;;;6.83;4.93;;;2.50;34.10;;;;;;5071253;28;20494;-53
2022/03/13 03:41:49;;;;;;;6.10;4.63;;;2.50;34.00;;;;;;5071893;28;20413;-51
2022/03/13 03:44:14;;;;;;;5.50;4.00;;;2.50;34.10;;;;;;5071558;28;20482;-53
2022/03/13 03:46:41;;;;;;;8.73;4.40;;;2.50;34.30;;;;;;5071168;28;20404;-53
2022/03/13 03:49:07;;;;;;;5.83;4.30;;;2.50;34.60;;;;;;5071406;28;20579;-49
2022/03/13 03:51:34;;;;;;;5.03;4.10;;;2.50;34.20;;;;;;5071551;28;20404;-53
2022/03/13 03:54:00;;;;;;;5.20;3.97;;;2.50;34.60;;;;;;5071502;28;20227;-53
2022/03/13 03:56:26;;;;;;;5.77;3.90;;;2.60;34.60;;;;;;5071250;28;20417;-51
2022/03/13 03:58:51;;;;;;;4.93;3.90;;;2.60;34.90;;;;;;5071545;28;20741;-51
2022/03/13 04:01:17;;;;;;;5.40;4.07;;;2.60;34.70;;;;;;5071724;28;20185;-51
2022/03/13 04:03:43;;;;;;;6.13;4.50;;;2.60;34.60;;;;;;5071595;28;20607;-49
2022/03/13 04:06:09;;;;;;;5.90;4.30;;;2.60;34.60;;;;;;5071099;28;20166;-51
2022/03/13 04:08:34;;;;;;;5.77;4.67;;;2.60;34.80;;;;;;5071468;28;20186;-55
2022/03/13 04:11:00;;;;;;;5.57;4.47;;;2.60;35.20;;;;;;5071493;28;20429;-49
2022/03/13 04:13:28;;;;;;;5.80;4.60;;;2.50;35.40;;;;;;5071459;28;20178;-51
2022/03/13 04:15:55;;;;;;;6.53;4.67;;;2.40;34.60;;;;;;5071225;28;20170;-52
2022/03/13 04:18:21;;;;;;;5.73;4.37;;;2.30;35.60;;;;;;5071511;28;20409;-57
2022/03/13 04:20:47;;;;;;;6.40;4.73;;;2.30;35.30;;;;;;5071394;28;20478;-52
2022/03/13 04:23:12;;;;;;;6.33;4.67;;;2.30;35.60;;;;;;5071256;28;20217;-50
2022/03/13 04:25:38;;;;;;;5.90;4.50;;;2.30;35.80;;;;;;5071087;28;20177;-51
2022/03/13 04:28:04;;;;;;;6.10;4.40;;;2.30;35.80;;;;;;5071487;28;20178;-55
2022/03/13 04:30:31;;;;;;;8.67;4.83;;;2.30;35.60;;;;;;5071471;28;20721;-52
2022/03/13 04:33:01;;;;;;;6.30;4.07;;;2.30;35.30;;;;;;5071432;28;20500;-55
2022/03/13 04:35:27;;;;;;;5.63;4.40;;;2.30;36.00;;;;;;5071245;28;20499;-51
2022/03/13 04:37:52;;;;;;;5.17;4.20;;;2.30;36.70;;;;;;5070973;28;20842;-57
2022/03/13 04:40:18;;;;;;;6.23;4.57;;;2.30;37.00;;;;;;5071216;28;20200;-53
2022/03/13 04:42:44;;;;;;;6.43;4.27;;;2.20;36.90;;;;;;5073147;28;20198;-52
2022/03/13 04:45:10;;;;;;;6.40;4.23;;;2.10;37.00;;;;;;5075128;28;20177;-56
2022/03/13 04:47:35;;;;;;;6.03;4.10;;;2.10;37.60;;;;;;5074609;28;20173;-51
2022/03/13 04:50:01;;;;;;;7.27;4.57;;;2.00;37.00;;;;;;5074764;28;20186;-52
2022/03/13 04:52:27;;;;;;;6.57;4.63;;;2.00;37.20;;;;;;5074771;28;20654;-51
2022/03/13 04:54:53;;;;;;;4.83;4.10;;;2.00;37.00;;;;;;5074856;28;20170;-52
2022/03/13 04:57:19;;;;;;;7.03;4.63;;;2.00;35.60;;;;;;5074320;28;20409;-54
2022/03/13 04:59:45;;;;;;;7.00;4.90;;;2.10;34.30;;;;;;5074620;28;20194;-53
2022/03/13 05:02:11;;;;;;;5.97;4.50;;;2.00;33.80;;;;;;5074665;28;20407;-55
2022/03/13 05:04:38;;;;;;;5.90;4.60;;;2.00;33.80;;;;;;5074599;28;20270;-51
2022/03/13 05:07:06;;;;;;;6.20;4.10;;;2.00;33.80;;;;;;5074484;28;20270;-54
2022/03/13 05:09:32;;;;;;;6.03;4.70;;;1.90;34.00;;;;;;5074486;28;20424;-54
2022/03/13 05:11:58;;;;;;;7.40;4.60;;;1.90;34.20;;;;;;5074387;28;21103;-50
2022/03/13 05:14:24;;;;;;;8.17;4.80;;;2.00;34.40;;;;;;5074599;28;20409;-53
2022/03/13 05:16:49;;;;;;;7.17;4.30;;;2.00;34.30;;;;;;5074211;28;20178;-57
2022/03/13 05:19:15;;;;;;;5.50;4.77;;;1.90;34.20;;;;;;5075217;28;20194;-57
2022/03/13 05:21:41;;;;;;;6.20;4.93;;;1.90;34.50;;;;;;5074315;28;20614;-53
2022/03/13 05:24:07;;;;;;;6.07;5.20;;;1.90;34.60;;;;;;5074281;28;20675;-53
2022/03/13 05:26:33;;;;;;;6.10;4.30;;;2.00;34.50;;;;;;5073923;28;20408;-52
2022/03/13 05:28:59;;;;;;;7.63;4.77;;;2.00;34.60;;;;;;5074114;28;20232;-55
2022/03/13 05:31:25;;;;;;;7.80;5.10;;;1.90;34.40;;;;;;5074184;28;20420;-54
2022/03/13 05:33:50;;;;;;;7.07;5.00;;;1.90;34.30;;;;;;5074142;28;20201;-57
2022/03/13 05:36:17;;;;;;;7.77;4.90;;;1.90;34.50;;;;;;5073819;28;20627;-51
2022/03/13 05:38:42;;;;;;;6.10;4.87;;;1.90;34.50;;;;;;5073913;28;20209;-54
2022/03/13 05:41:08;;;;;;;6.90;5.03;;;1.90;34.60;;;;;;5073875;28;20444;-57
2022/03/13 05:43:34;;;;;;;7.97;4.70;;;1.90;34.50;;;;;;5073914;28;20194;-54
2022/03/13 05:45:59;;;;;;;7.10;5.13;;;1.80;34.60;;;;;;5073747;28;20213;-54
2022/03/13 05:48:26;;;;;;;7.03;5.13;;;1.90;34.60;;;;;;5073808;28;20167;-56
2022/03/13 05:50:52;;;;;;;6.93;5.60;;;1.90;34.70;;;;;;5073795;28;20186;-54
2022/03/13 05:53:17;;;;;;;7.10;5.53;;;1.90;34.70;;;;;;5073554;28;20905;-57
2022/03/13 05:55:43;;;;;;;8.57;5.50;;;1.90;34.80;;;;;;5073620;28;20514;-56
2022/03/13 05:58:10;;;;;;;7.50;5.27;;;1.80;35.00;;;;;;5073617;28;20254;-57
2022/03/13 06:00:39;;;;;;;7.70;5.67;;;1.80;35.10;;;;;;5073569;28;20190;-57
2022/03/13 06:03:05;;;;;;;6.57;5.23;;;1.80;35.40;;;;;;5073394;28;20448;-55
2022/03/13 06:05:35;;;;;;;7.90;5.60;;;1.70;35.30;;;;;;5073367;28;20401;-55
2022/03/13 06:08:01;;;;;;;7.57;5.40;;;1.80;35.50;;;;;;5073463;28;20501;-54
2022/03/13 06:10:27;;;;;;;6.90;5.30;;;1.90;35.60;;;;;;5073343;28;20416;-57
2022/03/13 06:12:53;;;;;;;10.10;5.90;;;1.90;35.80;;;;;;5073405;28;20417;-55
2022/03/13 06:15:19;;;;;;;9.03;5.60;;;2.00;36.00;;;;;;5073155;28;20409;-57
2022/03/13 06:17:46;;;;;;;7.70;5.23;;;2.00;36.00;;;;;;5072915;28;20432;-54
2022/03/13 06:20:14;;;;;;;9.50;5.87;;;2.00;36.20;;;;;;5073115;28;20206;-56
2022/03/13 06:22:44;;;;;;;8.53;5.47;;;1.90;36.20;;;;;;5073298;28;20821;-53
2022/03/13 06:25:12;;;;;;;7.13;5.30;;;1.90;36.20;;;;;;5073166;28;20409;-57
2022/03/13 06:27:38;;;;;;;8.70;5.47;;;2.00;36.20;;;;;;5072680;28;20420;-54
2022/03/13 06:30:16;;;;;;;7.03;5.17;;;2.00;36.10;;;;;;5072855;28;20435;-52
2022/03/13 06:32:45;;;;;;;8.40;5.80;;;2.20;35.80;;;;;;5073019;28;20916;-54
2022/03/13 06:35:11;;;;;;;6.77;4.83;;;2.30;35.40;;;;;;5072727;28;20404;-56
2022/03/13 06:37:38;;;;;;;8.43;5.40;;;1.20;34.10;;;;;;5072443;28;20491;-57
2022/03/13 06:40:05;;;;;;;8.63;5.47;;;2.50;34.60;;;;;;5072585;28;20433;-57
2022/03/13 06:42:31;;;;;;;6.73;5.23;;;2.50;34.60;;;;;;5072668;28;20413;-57
2022/03/13 06:44:56;;;;;;;7.20;5.07;;;2.50;34.90;;;;;;5072570;28;20405;-55
2022/03/13 06:47:23;;;;;;;6.37;4.97;;;2.60;35.30;;;;;;5072346;28;20253;-56
2022/03/13 06:49:48;;;;;;;6.80;5.07;;;2.60;35.20;;;;;;5072469;28;20187;-57
2022/03/13 06:52:14;;;;;;;9.43;5.40;;;2.70;35.50;;;;;;5072465;28;20503;-57
2022/03/13 06:54:41;;;;;;;8.83;5.70;;;2.80;36.00;;;;;;5072622;28;20227;-53
2022/03/13 06:57:06;;;;;;;9.20;5.37;;;2.90;35.40;;;;;;5072152;28;20163;-54
2022/03/13 06:59:32;;;;;;;8.73;5.30;;;2.90;35.00;;;;;;5071397;28;20483;-49
2022/03/13 07:01:57;;;;;;;6.97;5.50;;;3.00;35.80;;;;;;5072105;28;20659;-48
2022/03/13 07:04:23;;;;;;;8.30;5.77;;;3.10;36.30;;;;;;5087226;28;20683;-54
2022/03/13 07:06:48;;;;;;;7.70;5.40;;;3.20;35.70;;;;;;5071916;28;20173;-49
2022/03/13 07:09:14;;;;;;;8.27;5.63;;;3.30;35.90;;;;;;5072147;28;20277;-51
2022/03/13 07:11:49;;;;;;;8.30;5.80;;;3.30;34.70;;;;;;5072126;28;20175;-50
2022/03/13 07:14:18;;;;;;;6.43;5.10;;;3.30;34.60;;;;;;5072277;28;20173;-50
2022/03/13 07:16:44;;;;;;;7.80;5.10;;;3.40;34.90;;;;;;5071803;28;20404;-52
2022/03/13 07:19:10;;;;;;;8.07;5.40;;;3.40;35.20;;;;;;5072040;28;20990;-51
2022/03/13 07:21:37;;;;;;;9.10;5.33;;;3.40;35.30;;;;;;5072021;28;20197;-53
2022/03/13 07:24:02;;;;;;;8.57;5.73;;;3.50;36.00;;;;;;5072024;28;20190;-54
2022/03/13 07:26:28;;;;;;;6.60;5.30;;;3.60;35.70;;;;;;5071621;28;20411;-50
2022/03/13 07:28:53;;;;;;;7.97;5.77;;;3.70;35.80;;;;;;5071769;28;20512;-52
2022/03/13 07:31:20;;;;;;;9.33;5.83;;;3.70;35.70;;;;;;5071981;28;20209;-52
2022/03/13 07:33:46;;;;;;;9.23;6.10;;;3.90;35.40;;;;;;5071972;28;20169;-54
2022/03/13 07:36:11;;;;;;;6.93;5.30;;;4.00;34.80;;;;;;5071533;28;20405;-52
2022/03/13 07:38:37;;;;;;;8.10;6.03;;;4.10;34.60;;;;;;5071884;28;20175;-53
2022/03/13 07:41:03;;;;;;;7.67;5.87;;;4.10;35.40;;;;;;5071620;28;20190;-54
2022/03/13 07:43:29;;;;;;;7.70;6.20;;;4.20;34.70;;;;;;5071898;28;20275;-56
2022/03/13 07:45:55;;;;;;;7.80;5.80;;;4.00;33.80;;;;;;5071440;28;20158;-54
2022/03/13 07:48:20;;;;;;;7.80;6.50;;;3.90;34.60;;;;;;5071457;28;20171;-51
2022/03/13 07:50:46;;;;;;;8.93;5.67;;;3.90;34.50;;;;;;5071366;28;20186;-52
2022/03/13 07:53:11;;;;;;;6.70;5.87;;;3.90;35.10;;;;;;5071572;28;20639;-57
2022/03/13 07:55:37;;;;;;;7.60;5.90;;;3.90;35.20;;;;;;5071183;28;20186;-53
2022/03/13 07:58:03;;;;;;;7.67;6.00;;;4.00;35.20;;;;;;5071370;28;20174;-55
2022/03/13 08:00:28;;;;;;;8.27;5.80;;;4.10;35.60;;;;;;5071716;28;20205;-52
2022/03/13 08:02:54;;;;;;;7.17;5.90;;;4.20;35.30;;;;;;5071642;28;20875;-52
2022/03/13 08:05:23;;;;;;;8.87;5.93;;;4.30;34.40;;;;;;5071524;28;20167;-53
2022/03/13 08:07:52;;;;;;;8.67;6.20;;;4.40;34.90;;;;;;5071087;28;20253;-55
2022/03/13 08:10:20;;;;;;;6.83;5.53;;;4.50;35.60;;;;;;5071346;28;20608;-52
2022/03/13 08:12:48;;;;;;;8.63;5.77;;;4.60;35.40;;;;;;5071462;28;20177;-52
2022/03/13 08:15:13;;;;;;;8.50;6.20;;;4.80;36.10;;;;;;5071388;28;20238;-51
2022/03/13 08:17:39;;;;;;;8.43;5.53;;;5.00;36.00;;;;;;5073054;28;20208;-52
2022/03/13 08:20:05;;;;;;;9.83;6.97;;;5.10;36.70;;;;;;5075231;28;20205;-54
2022/03/13 08:22:31;;;;;;;9.57;6.53;;;5.30;37.50;;;;;;5075138;28;20167;-50
2022/03/13 08:24:57;;;;;;;7.27;5.83;;;5.30;37.70;;;;;;5090852;28;20582;-55
2022/03/13 08:27:22;;;;;;;8.40;6.30;;;5.30;38.40;;;;;;5074543;28;20643;-53
2022/03/13 08:29:48;;;;;;;8.37;6.17;;;5.40;37.10;;;;;;5078646;28;20198;-55
2022/03/13 08:32:16;;;;;;;7.73;6.03;;;5.60;36.90;;;;;;5078923;28;20648;-54
2022/03/13 08:34:42;;;;;;;7.80;6.40;;;5.80;37.50;;;;;;5076309;28;20562;-56
2022/03/13 08:37:08;;;;;;;8.20;6.13;;;5.90;36.80;;;;;;5088490;28;20252;-57
2022/03/13 08:39:35;;;;;;;8.73;6.20;;;6.10;35.60;;;;;;5082409;28;20228;-50
2022/03/13 08:42:01;;;;;;;9.17;5.70;;;6.30;36.00;;;;;;5079174;28;20170;-52
2022/03/13 08:44:26;;;;;;;7.83;5.30;;;6.60;32.60;;;;;;5074548;28;20248;-52
2022/03/13 08:46:52;;;;;;;9.40;6.00;;;6.80;32.80;;;;;;5074331;28;20178;-55
2022/03/13 08:49:17;;;;;;;7.53;6.00;;;6.90;31.90;;;;;;5074336;28;20201;-58
2022/03/13 08:51:43;;;;;;;6.90;5.53;;;7.00;31.40;;;;;;5074894;28;20181;-51
2022/03/13 08:54:09;;;;;;;7.07;5.37;;;7.20;30.60;;;;;;5074696;28;20261;-52
2022/03/13 08:56:35;;;;;;;7.20;5.90;;;7.40;31.60;;;;;;5074530;28;20511;-55
2022/03/13 08:59:01;;;;;;;7.53;5.60;;;7.60;29.70;;;;;;5074722;28;20221;-51
2022/03/13 09:01:27;;;;;;;7.60;6.00;;;7.70;29.40;;;;;;5074135;28;20212;-54
2022/03/13 09:03:53;;;;;;;7.23;6.00;;;7.90;31.20;;;;;;5074572;28;20199;-53
2022/03/13 09:06:18;;;;;;;6.53;5.27;;;8.00;31.70;;;;;;5072988;28;20170;-56
2022/03/13 09:08:44;;;;;;;7.40;5.50;;;8.20;30.90;;;;;;5073869;28;20262;-55
2022/03/13 09:11:11;;;;;;;7.67;5.70;;;8.40;29.20;;;;;;5074227;28;20574;-57
2022/03/13 09:13:37;;;;;;;7.50;6.00;;;8.70;28.40;;;;;;5074012;28;20171;-55
2022/03/13 09:16:03;;;;;;;7.13;5.73;;;9.20;28.80;;;;;;5073987;28;20181;-57
2022/03/13 09:18:30;;;;;;;6.60;5.53;;;9.50;28.40;;;;;;5074382;28;20372;-54
2022/03/13 09:20:59;;;;;;;8.07;6.23;;;9.70;28.30;;;;;;5073598;28;20206;-55
2022/03/13 09:23:25;;;;;;;6.73;5.70;;;9.70;28.50;;;;;;5074325;28;20293;-57
2022/03/13 09:25:52;;;;;;;8.57;5.90;;;10.00;28.00;;;;;;5073925;28;20185;-55
2022/03/13 09:28:19;;;;;;;6.57;5.80;;;10.30;27.40;;;;;;5073284;28;20270;-56
2022/03/13 09:30:44;;;;;;;8.13;6.43;;;10.70;27.00;;;;;;5079903;28;20197;-54
2022/03/13 09:33:11;;;;;;;7.03;5.87;;;11.20;27.60;;;;;;5073773;28;20174;-58
2022/03/13 09:35:36;;;;;;;7.90;6.07;;;11.60;27.50;;;;;;5073606;28;20217;-57
2022/03/13 09:38:02;;;;;;;7.57;5.87;;;12.20;26.90;;;;;;5073969;28;20175;-54
2022/03/13 09:40:27;;;;;;;7.10;6.00;;;12.90;25.60;;;;;;5073982;28;20206;-53
2022/03/13 09:42:53;;;;;;;6.43;5.43;;;13.50;25.50;;;;;;5076374;28;20210;-52
2022/03/13 09:45:19;;;;;;;6.80;6.03;;;14.60;25.00;;;;;;5073403;28;20174;-56
2022/03/13 09:47:44;;;;;;;6.60;5.83;;;15.90;23.70;;;;;;5073550;28;20202;-56
2022/03/13 09:50:14;;;;;;;7.13;5.80;;;17.30;23.20;;;;;;5073608;28;20256;-52
2022/03/13 09:52:41;;;;;;;5.83;5.23;;;18.70;21.80;;;;;;5073747;28;20630;-56
2022/03/13 09:55:09;;;;;;;5.83;5.23;;;20.30;21.80;;;;;;5073799;28;20175;-57
2022/03/13 09:57:36;;;;;;;7.00;6.07;;;22.20;20.50;;;;;;5073371;28;20678;-57
2022/03/13 10:00:05;;;;;;;6.45;5.47;;;23.60;19.10;;;;;;5073452;28;20195;-56
2022/03/13 10:02:35;;;;;;;6.70;6.00;;;25.00;18.20;;;;;;5073516;28;20181;-58
2022/03/13 10:05:07;;;;;;;6.82;6.07;;;26.70;18.70;;;;;;5073562;28;20531;-57
2022/03/13 10:08:03;;;;;;;8.38;6.30;;;28.30;16.40;;;;;;5073201;28;20175;-54
2022/03/13 10:10:42;;;;;;;6.13;5.53;;;29.80;15.20;;;;;;5073434;28;20203;-56
2022/03/13 10:13:09;;;;;;;6.20;5.60;;;29.90;14.90;;;;;;5073332;28;20167;-56
2022/03/13 10:15:41;;;;;;;6.30;5.57;;;30.70;15.30;;;;;;5073006;28;20697;-58
2022/03/13 10:18:18;;;;;;;5.60;5.10;;;32.50;14.00;;;;;;5073262;28;20179;-58
2022/03/13 10:20:47;;;;;;;5.35;4.85;;;33.40;13.30;;;;;;5073009;28;20213;-56
2022/03/13 10:23:18;;;;;;;5.85;5.25;;;35.40;13.20;;;;;;5072880;28;20216;-59
2022/03/13 10:25:46;;;;;;;5.75;5.25;;;37.40;12.20;;;;;;5072911;28;20628;-58
2022/03/13 10:28:16;;;;;;;5.40;4.90;;;38.60;11.20;;;;;;5073082;28;20635;-56
2022/03/13 10:30:43;;;;;;;5.22;4.72;;;39.20;10.70;;;;;;5073015;28;20609;-59
2022/03/13 10:33:08;;;;;;;5.63;5.13;;;39.00;11.00;;;;;;5072206;28;20689;-58
2022/03/13 10:35:38;;;;;;;5.43;4.93;;;39.50;10.50;;;;;;5072282;28;20197;-58
2022/03/13 10:38:19;;;;;;;6.15;4.90;;;40.10;11.00;;;;;;5070106;28;20302;-59
2022/03/13 10:40:49;;;;;;;5.07;4.68;;;41.00;9.70;;;;;;5069099;28;20247;-57
2022/03/13 10:43:19;;;;;;;5.10;4.68;;;40.40;9.60;;;;;;5072009;28;20197;-59
2022/03/13 10:45:51;;;;;;;5.40;4.90;;;40.30;10.00;;;;;;5071104;28;20172;-56
2022/03/13 10:48:28;;;;;;;5.03;4.63;;;41.30;9.60;;;;;;5070762;28;20201;-58
2022/03/13 10:50:59;;;;;;;5.25;4.53;;;41.80;9.10;;;;;;5072134;28;20243;-58
2022/03/13 10:53:27;;;;;;;4.80;4.40;;;42.30;8.80;;;;;;5069936;28;20205;-59
2022/03/13 10:56:08;;;;;;;4.93;4.40;;;43.20;8.70;;;;;;5071925;28;20257;-59
2022/03/13 10:58:38;;;;;;;5.45;4.70;;;43.30;7.90;;;;;;5071085;28;20692;-59
2022/03/13 11:01:16;;;;;;;4.65;4.25;;;43.10;8.20;;;;;;5069322;28;20190;-59
2022/03/13 11:03:50;;;;;;;4.43;4.03;;;44.00;8.30;;;;;;5069287;28;20283;-59
2022/03/13 11:06:16;;;;;;;5.75;4.20;;;44.80;7.40;;;;;;5071750;28;20642;-59
2022/03/13 11:08:41;;;;;;;4.25;3.85;;;44.70;7.60;;;;;;5069260;28;20166;-59
2022/03/13 11:11:09;;;;;;;4.57;4.18;;;45.10;7.50;;;;;;5071752;28;20726;-58
2022/03/13 11:13:39;;;;;;;4.60;4.22;;;45.80;7.20;;;;;;5072074;28;20561;-59
2022/03/13 11:16:06;;;;;;;4.75;4.32;;;44.90;6.70;;;;;;5069392;28;20576;-59
2022/03/13 11:18:35;;;;;;;5.07;4.68;;;44.40;7.10;;;;;;5071742;28;20258;-58
2022/03/13 11:21:01;;;;;;;5.25;4.70;;;43.50;7.20;;;;;;5071709;28;20225;-57
2022/03/13 11:23:31;;;;;;;4.55;4.15;;;42.80;7.40;;;;;;5071769;28;20281;-58
2022/03/13 11:25:57;;;;;;;4.75;4.35;;;42.30;7.40;;;;;;5071193;28;20177;-56
2022/03/13 11:28:23;;;;;;;5.60;4.72;;;42.00;7.70;;;;;;5071304;28;20178;-57
2022/03/13 11:30:49;;;;;;;4.75;4.35;;;42.70;7.70;;;;;;5071580;28;20713;-59
2022/03/13 11:33:44;;;;;;;4.30;4.00;;;43.00;7.00;;;;;;5071721;28;20177;-59
2022/03/13 11:36:30;;;;;;;4.80;4.40;;;43.60;8.00;;;;;;5069689;28;20185;-56
2022/03/13 11:38:58;;;;;;;5.00;4.30;;;41.80;7.50;;;;;;5070534;28;20180;-57
2022/03/13 11:41:38;;;;;;;4.82;4.43;;;40.80;8.40;;;;;;5069217;28;20552;-59
2022/03/13 11:44:21;;;;;;;4.78;4.38;;;40.60;8.20;;;;;;5068320;28;20197;-57
2022/03/13 11:46:55;;;;;;;4.25;3.95;;;41.20;8.10;;;;;;5069053;28;20174;-58
2022/03/13 11:49:26;;;;;;;4.78;4.38;;;42.30;8.00;;;;;;5071241;28;20236;-58
2022/03/13 11:52:17;;;;;;;4.88;4.45;;;42.50;7.50;;;;;;5071079;28;20180;-58
2022/03/13 11:54:52;;;;;;;4.85;4.35;;;41.20;8.00;;;;;;5068657;28;20260;-57
2022/03/13 11:57:29;;;;;;;4.65;4.25;;;40.20;8.30;;;;;;5070631;28;20201;-57
2022/03/13 12:00:29;;;;;;;4.15;3.85;;;39.30;8.10;;;;;;5070911;28;20189;-54
2022/03/13 12:03:08;;;;;;;4.55;4.15;;;39.70;7.50;;;;;;5071000;28;20219;-56
2022/03/13 12:05:34;;;;;;;4.82;3.95;;;39.50;8.20;;;;;;5069694;28;20679;-58
2022/03/13 12:08:05;;;;;;;4.55;4.15;;;39.60;8.00;;;;;;5071063;28;20169;-57
2022/03/13 12:10:41;;;;;;;4.35;3.95;;;39.50;8.00;;;;;;5071207;28;20264;-59
2022/03/13 12:13:18;;;;;;;4.28;3.97;;;40.40;8.30;;;;;;5153362;22;20230;-57
2022/03/13 12:15:44;;;;;;;3.88;3.53;;;40.70;7.80;;;;;;5047931;28;20723;-59
2022/03/13 12:18:22;;;;;;;4.75;4.25;;;39.70;7.50;;;;;;5043700;28;20175;-57
2022/03/13 12:20:49;;;;;;;4.65;3.97;;;38.70;7.50;;;;;;5047294;28;20548;-57
2022/03/13 12:23:36;;;;;;;4.30;3.90;;;38.00;8.30;;;;;;5031535;28;20199;-55
2022/03/13 12:26:27;;;;;;;4.35;4.00;;;38.20;9.10;;;;;;5026310;28;20164;-58
2022/03/13 12:28:55;;;;;;;4.35;3.95;;;39.00;8.00;;;;;;5027887;28;20175;-59
2022/03/13 12:31:21;;;;;;;4.10;3.80;;;39.10;8.00;;;;;;5028980;28;20163;-57
2022/03/13 12:33:49;;;;;;;4.20;3.90;;;39.10;7.90;;;;;;5030837;28;20198;-58
2022/03/13 12:36:15;;;;;;;4.13;3.75;;;38.90;7.20;;;;;;5030597;28;20183;-58
2022/03/13 12:38:45;;;;;;;4.60;4.13;;;38.90;7.90;;;;;;5028169;28;20167;-57
2022/03/13 12:41:12;;;;;;;4.00;3.60;;;39.00;7.50;;;;;;5030965;28;20194;-58
2022/03/13 12:43:49;;;;;;;4.30;4.00;;;38.80;7.70;;;;;;5030724;28;20196;-57
2022/03/13 12:46:17;;;;;;;4.32;3.70;;;38.30;8.10;;;;;;5030512;28;20175;-54
2022/03/13 12:48:56;;;;;;;4.85;3.67;;;37.00;8.10;;;;;;5027988;28;20163;-55
2022/03/13 12:51:47;;;;;;;4.18;3.78;;;35.70;8.60;;;;;;5028196;28;20599;-57
2022/03/13 12:54:32;;;;;;;4.32;3.58;;;35.10;9.00;;;;;;5029595;28;20180;-57
2022/03/13 12:57:05;;;;;;;4.10;3.70;;;35.30;9.10;;;;;;5030134;28;20174;-56
2022/03/13 12:59:40;;;;;;;3.60;3.30;;;35.70;8.40;;;;;;5030669;28;20679;-57